Ruggles, Ohio
Current Conditions -  °F | °C
As of 10:52 AM on Sunday 21 Dec 2014 (Local Time) from KMFD Reporting Station
Clear Clear  
Wind Chill: 25°   Ceiling: Unl
Heat Index: 30°   Visibility: 10mi
Dew Point: 20°   Wind: 5mph
Humidity: 66%   Direction: 220°SW
Pressure: 30.29"   Gusts: NA
Location:  41.1035°N, 82.407°W
Report Text: KMFD 211552Z 22004KT 10SM CLR M01/M07 A3029 RMK AO2 SLP274 T10111067
Loading
Personal Weather Stations






























Interactive Weather Map New forecast layout! Learn more

10-Day Weather Forecast

Advertisements
Track Severe Weather on mobile